Summary for KCOGRAND2

Redlands, Southcamp Road & Dakota Circle, Grand Junction, CO 81507
Join the PWSweather.com Network
View data in metric units
Latest Conditions
Updated 8:37:30 AM MDT Friday, Oct 24, 2014
Data Currently Today's Max Today's Min Today's Average
Temperature 49.3°F9.6°C 53.6°F12.0°C 43.0°F6.1°C 46.9°F8.3°C
Dew Point 29.3°F-1.5°C 33.1°F0.6°C 27.9°F-2.3°C 30.9°F-0.6°C
Winds 5.0 mph N8.0 kmh N 5.0 mph N8.0 kmh N CalmCalm 1.3 mph2.1 kmh
Wind Gusts 7.8 mph12.6 kmh 7.8 mph12.6 kmh -- 3.8 mph6.1 kmh
Humidity 46% 63% 39% 54%
Pressure 25.28 in856.1 mb 25.28 in856.1 mb 25.22 in854.0 mb 25.24 in854.7 mb
Precipitation 0.00 in0.0 mm - - 0.00 in0.0 mm
Trends
 
Station Profile
Redlands, Southcamp Road & Dakota CircleGrand Junction, CO 81507

Lat: 39.055, Lon: -108.637
Elevation: 4870
Station Type: RadioShack WX200

Detailed Summary for Fri, Oct 24, 2014
Hour (MDT) Temperature Dew Point Humidity Winds Wind Gusts Pressure Precip Precip Rate Daily Precip Total
08:37 AM 49.3°F9.6°C 29.3°F-1.5°C 46% 5.0 mph N8.0 kmh N 7.8 mph12.6 kmh 25.28 in856.1 mb 0.00 in0.0 mm 0.00 in/hr0.0 mm/hr 0.00 in0.0 mm
08:32 AM 48.9°F9.4°C 29.7°F-1.3°C 47% 5.0 mph N8.0 kmh N 6.7 mph10.8 kmh 25.28 in856.1 mb 0.00 in0.0 mm 0.00 in/hr0.0 mm/hr 0.00 in0.0 mm
08:27 AM 48.6°F9.2°C 29.8°F-1.2°C 48% 5.0 mph N8.0 kmh N 6.9 mph11.1 kmh 25.28 in856.1 mb 0.00 in0.0 mm 0.00 in/hr0.0 mm/hr 0.00 in0.0 mm
08:22 AM 48.2°F9.0°C 30.0°F-1.1°C 49% 4.0 mph N6.4 kmh N 7.8 mph12.6 kmh 25.28 in856.1 mb 0.00 in0.0 mm 0.00 in/hr0.0 mm/hr 0.00 in0.0 mm
08:17 AM 47.3°F8.5°C 30.6°F-0.8°C 52% 3.0 mph N4.8 kmh N 4.5 mph7.2 kmh 25.28 in856.1 mb 0.00 in0.0 mm 0.00 in/hr0.0 mm/hr 0.00 in0.0 mm
08:12 AM 46.9°F8.3°C 32.5°F0.3°C 57% 2.0 mph NE3.2 kmh NE 5.8 mph9.3 kmh 25.28 in856.1 mb 0.00 in0.0 mm 0.00 in/hr0.0 mm/hr 0.00 in0.0 mm
08:07 AM 44.8°F7.1°C 31.3°F-0.4°C 59% 1.0 mph NE1.6 kmh NE 4.5 mph7.2 kmh 25.28 in856.1 mb 0.00 in0.0 mm 0.00 in/hr0.0 mm/hr 0.00 in0.0 mm
08:02 AM 43.7°F6.5°C 29.8°F-1.2°C 58% 1.0 mph NE1.6 kmh NE 4.9 mph7.9 kmh 25.28 in856.1 mb 0.00 in0.0 mm 0.00 in/hr0.0 mm/hr 0.00 in0.0 mm
07:57 AM 43.7°F6.5°C 29.8°F-1.2°C 58% 2.0 mph NE3.2 kmh NE 4.5 mph7.2 kmh 25.28 in856.1 mb 0.00 in0.0 mm 0.00 in/hr0.0 mm/hr 0.00 in0.0 mm
07:52 AM 44.1°F6.7°C 29.8°F-1.2°C 57% 1.0 mph NNE1.6 kmh NNE 4.9 mph7.9 kmh 25.28 in856.1 mb 0.00 in0.0 mm 0.00 in/hr0.0 mm/hr 0.00 in0.0 mm
07:47 AM 44.1°F6.7°C 29.3°F-1.5°C 56% 1.0 mph NNE1.6 kmh NNE 3.6 mph5.8 kmh 25.28 in856.1 mb 0.00 in0.0 mm 0.00 in/hr0.0 mm/hr 0.00 in0.0 mm
07:42 AM 44.2°F6.8°C 28.2°F-2.1°C 53% 3.0 mph N4.8 kmh N 4.5 mph7.2 kmh 25.28 in856.1 mb 0.00 in0.0 mm 0.00 in/hr0.0 mm/hr 0.00 in0.0 mm
07:37 AM 45.5°F7.5°C 29.3°F-1.5°C 53% 4.0 mph N6.4 kmh N 7.4 mph11.9 kmh 25.28 in856.1 mb 0.00 in0.0 mm 0.00 in/hr0.0 mm/hr 0.00 in0.0 mm
07:32 AM 46.4°F8.0°C 31.6°F-0.2°C 56% 2.0 mph N3.2 kmh N 6.3 mph10.1 kmh 25.25 in855.1 mb 0.00 in0.0 mm 0.00 in/hr0.0 mm/hr 0.00 in0.0 mm
07:27 AM 44.6°F7.0°C 31.1°F-0.5°C 59% 1.0 mph NE1.6 kmh NE 5.4 mph8.7 kmh 25.25 in855.1 mb 0.00 in0.0 mm 0.00 in/hr0.0 mm/hr 0.00 in0.0 mm
07:22 AM 43.7°F6.5°C 30.4°F-0.9°C 59% Calm Calm 4.5 mph7.2 kmh 25.25 in855.1 mb 0.00 in0.0 mm 0.00 in/hr0.0 mm/hr 0.00 in0.0 mm
07:17 AM 43.0°F6.1°C 29.7°F-1.3°C 59% Calm Calm 3.6 mph5.8 kmh 25.25 in855.1 mb 0.00 in0.0 mm 0.00 in/hr0.0 mm/hr 0.00 in0.0 mm
07:12 AM 44.1°F6.7°C 30.2°F-1.0°C 58% Calm Calm -- 25.25 in855.1 mb 0.00 in0.0 mm 0.00 in/hr0.0 mm/hr 0.00 in0.0 mm
07:07 AM 44.2°F6.8°C 30.4°F-0.9°C 58% Calm Calm 3.1 mph5.0 kmh 25.25 in855.1 mb 0.00 in0.0 mm 0.00 in/hr0.0 mm/hr 0.00 in0.0 mm
07:02 AM 44.4°F6.9°C 31.5°F-0.3°C 60% Calm Calm 2.7 mph4.3 kmh 25.25 in855.1 mb 0.00 in0.0 mm 0.00 in/hr0.0 mm/hr 0.00 in0.0 mm
06:57 AM 43.5°F6.4°C 30.6°F-0.8°C 60% 2.0 mph NE3.2 kmh NE 4.0 mph6.4 kmh 25.25 in855.1 mb 0.00 in0.0 mm 0.00 in/hr0.0 mm/hr 0.00 in0.0 mm
06:52 AM 43.7°F6.5°C 30.4°F-0.9°C 59% 2.0 mph NNE3.2 kmh NNE 5.4 mph8.7 kmh 25.25 in855.1 mb 0.00 in0.0 mm 0.00 in/hr0.0 mm/hr 0.00 in0.0 mm
06:47 AM 43.7°F6.5°C 29.8°F-1.2°C 58% 2.0 mph N3.2 kmh N 5.4 mph8.7 kmh 25.25 in855.1 mb 0.00 in0.0 mm 0.00 in/hr0.0 mm/hr 0.00 in0.0 mm
06:42 AM 44.2°F6.8°C 30.4°F-0.9°C 58% 2.0 mph N3.2 kmh N 4.9 mph7.9 kmh 25.25 in855.1 mb 0.00 in0.0 mm 0.00 in/hr0.0 mm/hr 0.00 in0.0 mm
06:37 AM 45.1°F7.3°C 31.3°F-0.4°C 58% 3.0 mph NNE4.8 kmh NNE 4.5 mph7.2 kmh 25.25 in855.1 mb 0.00 in0.0 mm 0.00 in/hr0.0 mm/hr 0.00 in0.0 mm
06:32 AM 45.1°F7.3°C 32.5°F0.3°C 61% 3.0 mph NNE4.8 kmh NNE 4.5 mph7.2 kmh 25.25 in855.1 mb 0.00 in0.0 mm 0.00 in/hr0.0 mm/hr 0.00 in0.0 mm
06:27 AM 43.9°F6.6°C 31.3°F-0.4°C 61% 2.0 mph NE3.2 kmh NE 4.9 mph7.9 kmh 25.25 in855.1 mb 0.00 in0.0 mm 0.00 in/hr0.0 mm/hr 0.00 in0.0 mm
06:22 AM 43.7°F6.5°C 30.7°F-0.7°C 60% 1.0 mph NE1.6 kmh NE 3.6 mph5.8 kmh 25.25 in855.1 mb 0.00 in0.0 mm 0.00 in/hr0.0 mm/hr 0.00 in0.0 mm
06:17 AM 43.7°F6.5°C 30.7°F-0.7°C 60% 1.0 mph NE1.6 kmh NE 4.9 mph7.9 kmh 25.25 in855.1 mb 0.00 in0.0 mm 0.00 in/hr0.0 mm/hr 0.00 in0.0 mm
06:12 AM 44.2°F6.8°C 30.9°F-0.6°C 59% 1.0 mph NE1.6 kmh NE 4.0 mph6.4 kmh 25.25 in855.1 mb 0.00 in0.0 mm 0.00 in/hr0.0 mm/hr 0.00 in0.0 mm
06:07 AM 45.0°F7.2°C 32.0°F0.0°C 60% 2.0 mph NE3.2 kmh NE 3.1 mph5.0 kmh 25.25 in855.1 mb 0.00 in0.0 mm 0.00 in/hr0.0 mm/hr 0.00 in0.0 mm
06:02 AM 44.4°F6.9°C 30.9°F-0.6°C 59% 2.0 mph ENE3.2 kmh ENE 4.9 mph7.9 kmh 25.25 in855.1 mb 0.00 in0.0 mm 0.00 in/hr0.0 mm/hr 0.00 in0.0 mm
05:57 AM 44.2°F6.8°C 30.0°F-1.1°C 57% Calm Calm 3.6 mph5.8 kmh 25.25 in855.1 mb 0.00 in0.0 mm 0.00 in/hr0.0 mm/hr 0.00 in0.0 mm
05:52 AM 45.7°F7.6°C 32.2°F0.1°C 59% Calm Calm 3.6 mph5.8 kmh 25.25 in855.1 mb 0.00 in0.0 mm 0.00 in/hr0.0 mm/hr 0.00 in0.0 mm
05:47 AM 45.3°F7.4°C 30.9°F-0.6°C 57% Calm Calm 4.5 mph7.2 kmh 25.25 in855.1 mb 0.00 in0.0 mm 0.00 in/hr0.0 mm/hr 0.00 in0.0 mm
05:42 AM 46.2°F7.9°C 33.1°F0.6°C 60% Calm Calm 3.1 mph5.0 kmh 25.25 in855.1 mb 0.00 in0.0 mm 0.00 in/hr0.0 mm/hr 0.00 in0.0 mm
05:37 AM 45.1°F7.3°C 32.5°F0.3°C 61% Calm Calm -- 25.25 in855.1 mb 0.00 in0.0 mm 0.00 in/hr0.0 mm/hr 0.00 in0.0 mm
05:32 AM 44.8°F7.1°C 32.9°F0.5°C 63% Calm Calm -- 25.25 in855.1 mb 0.00 in0.0 mm 0.00 in/hr0.0 mm/hr 0.00 in0.0 mm
05:27 AM 44.1°F6.7°C 32.4°F0.2°C 63% Calm Calm -- 25.25 in855.1 mb 0.00 in0.0 mm 0.00 in/hr0.0 mm/hr 0.00 in0.0 mm
05:22 AM 43.9°F6.6°C 32.2°F0.1°C 63% Calm Calm 2.7 mph4.3 kmh 25.25 in855.1 mb 0.00 in0.0 mm 0.00 in/hr0.0 mm/hr 0.00 in0.0 mm
05:17 AM 43.9°F6.6°C 31.6°F-0.2°C 62% 1.0 mph NE1.6 kmh NE 3.1 mph5.0 kmh 25.25 in855.1 mb 0.00 in0.0 mm 0.00 in/hr0.0 mm/hr 0.00 in0.0 mm
05:11 AM 44.6°F7.0°C 32.7°F0.4°C 63% 1.0 mph NE1.6 kmh NE 5.4 mph8.7 kmh 25.25 in855.1 mb 0.00 in0.0 mm 0.00 in/hr0.0 mm/hr 0.00 in0.0 mm
05:06 AM 44.4°F6.9°C 32.2°F0.1°C 62% Calm Calm 4.5 mph7.2 kmh 25.25 in855.1 mb 0.00 in0.0 mm 0.00 in/hr0.0 mm/hr 0.00 in0.0 mm
05:01 AM 44.2°F6.8°C 32.5°F0.3°C 63% Calm Calm 3.1 mph5.0 kmh 25.22 in854.0 mb 0.00 in0.0 mm 0.00 in/hr0.0 mm/hr 0.00 in0.0 mm
04:56 AM 43.3°F6.3°C 31.3°F-0.4°C 62% 1.0 mph NE1.6 kmh NE 3.1 mph5.0 kmh 25.22 in854.0 mb 0.00 in0.0 mm 0.00 in/hr0.0 mm/hr 0.00 in0.0 mm
04:51 AM 43.3°F6.3°C 30.7°F-0.7°C 61% 2.0 mph NNE3.2 kmh NNE 5.4 mph8.7 kmh 25.22 in854.0 mb 0.00 in0.0 mm 0.00 in/hr0.0 mm/hr 0.00 in0.0 mm
04:46 AM 44.6°F7.0°C 31.1°F-0.5°C 59% 1.0 mph N1.6 kmh N 4.5 mph7.2 kmh 25.22 in854.0 mb 0.00 in0.0 mm 0.00 in/hr0.0 mm/hr 0.00 in0.0 mm
04:41 AM 45.5°F7.5°C 32.9°F0.5°C 61% Calm Calm -- 25.22 in854.0 mb 0.00 in0.0 mm 0.00 in/hr0.0 mm/hr 0.00 in0.0 mm
04:36 AM 45.0°F7.2°C 32.4°F0.2°C 61% 1.0 mph N1.6 kmh N 4.0 mph6.4 kmh 25.22 in854.0 mb 0.00 in0.0 mm 0.00 in/hr0.0 mm/hr 0.00 in0.0 mm
04:31 AM 45.0°F7.2°C 32.7°F0.4°C 62% 1.0 mph NE1.6 kmh NE 4.9 mph7.9 kmh 25.22 in854.0 mb 0.00 in0.0 mm 0.00 in/hr0.0 mm/hr 0.00 in0.0 mm
04:26 AM 44.2°F6.8°C 32.5°F0.3°C 63% Calm Calm 4.5 mph7.2 kmh 25.22 in854.0 mb 0.00 in0.0 mm 0.00 in/hr0.0 mm/hr 0.00 in0.0 mm
04:21 AM 44.6°F7.0°C 31.6°F-0.2°C 60% Calm Calm -- 25.22 in854.0 mb 0.00 in0.0 mm 0.00 in/hr0.0 mm/hr 0.00 in0.0 mm
04:16 AM 45.1°F7.3°C 31.6°F-0.2°C 59% 1.0 mph NE1.6 kmh NE 2.7 mph4.3 kmh 25.22 in854.0 mb 0.00 in0.0 mm 0.00 in/hr0.0 mm/hr 0.00 in0.0 mm
04:11 AM 45.1°F7.3°C 31.3°F-0.4°C 58% 1.0 mph NE1.6 kmh NE 6.9 mph11.1 kmh 25.22 in854.0 mb 0.00 in0.0 mm 0.00 in/hr0.0 mm/hr 0.00 in0.0 mm
04:06 AM 45.9°F7.7°C 31.5°F-0.3°C 57% Calm Calm 4.0 mph6.4 kmh 25.22 in854.0 mb 0.00 in0.0 mm 0.00 in/hr0.0 mm/hr 0.00 in0.0 mm
04:01 AM 46.2°F7.9°C 31.5°F-0.3°C 56% Calm Calm 2.7 mph4.3 kmh 25.22 in854.0 mb 0.00 in0.0 mm 0.00 in/hr0.0 mm/hr 0.00 in0.0 mm
03:56 AM 46.8°F8.2°C 31.8°F-0.1°C 56% Calm Calm -- 25.22 in854.0 mb 0.00 in0.0 mm 0.00 in/hr0.0 mm/hr 0.00 in0.0 mm
03:51 AM 46.8°F8.2°C 31.8°F-0.1°C 56% Calm Calm -- 25.22 in854.0 mb 0.00 in0.0 mm 0.00 in/hr0.0 mm/hr 0.00 in0.0 mm
03:46 AM 46.9°F8.3°C 32.9°F0.5°C 58% Calm Calm -- 25.22 in854.0 mb 0.00 in0.0 mm 0.00 in/hr0.0 mm/hr 0.00 in0.0 mm
03:41 AM 46.0°F7.8°C 32.2°F0.1°C 58% Calm Calm -- 25.22 in854.0 mb 0.00 in0.0 mm 0.00 in/hr0.0 mm/hr 0.00 in0.0 mm
03:36 AM 46.0°F7.8°C 32.2°F0.1°C 58% Calm Calm -- 25.22 in854.0 mb 0.00 in0.0 mm 0.00 in/hr0.0 mm/hr 0.00 in0.0 mm
03:31 AM 45.3°F7.4°C 31.5°F-0.3°C 58% Calm Calm -- 25.22 in854.0 mb 0.00 in0.0 mm 0.00 in/hr0.0 mm/hr 0.00 in0.0 mm
03:26 AM 45.5°F7.5°C 30.7°F-0.7°C 56% 1.0 mph NE1.6 kmh NE -- 25.22 in854.0 mb 0.00 in0.0 mm 0.00 in/hr0.0 mm/hr 0.00 in0.0 mm
03:21 AM 46.0°F7.8°C 31.3°F-0.4°C 56% 2.0 mph NE3.2 kmh NE 4.5 mph7.2 kmh 25.22 in854.0 mb 0.00 in0.0 mm 0.00 in/hr0.0 mm/hr 0.00 in0.0 mm
03:16 AM 46.4°F8.0°C 31.1°F-0.5°C 55% 2.0 mph NE3.2 kmh NE 4.9 mph7.9 kmh 25.22 in854.0 mb 0.00 in0.0 mm 0.00 in/hr0.0 mm/hr 0.00 in0.0 mm
03:11 AM 46.4°F8.0°C 30.7°F-0.7°C 54% 2.0 mph ENE3.2 kmh ENE 4.5 mph7.2 kmh 25.22 in854.0 mb 0.00 in0.0 mm 0.00 in/hr0.0 mm/hr 0.00 in0.0 mm
03:06 AM 48.0°F8.9°C 33.1°F0.6°C 56% 1.0 mph ENE1.6 kmh ENE 4.0 mph6.4 kmh 25.22 in854.0 mb 0.00 in0.0 mm 0.00 in/hr0.0 mm/hr 0.00 in0.0 mm
03:01 AM 46.9°F8.3°C 32.0°F0.0°C 56% 1.0 mph ENE1.6 kmh ENE 3.1 mph5.0 kmh 25.22 in854.0 mb 0.00 in0.0 mm 0.00 in/hr0.0 mm/hr 0.00 in0.0 mm
02:56 AM 46.6°F8.1°C 31.8°F-0.1°C 56% 1.0 mph ENE1.6 kmh ENE 4.0 mph6.4 kmh 25.22 in854.0 mb 0.00 in0.0 mm 0.00 in/hr0.0 mm/hr 0.00 in0.0 mm
02:51 AM 46.4°F8.0°C 31.1°F-0.5°C 55% Calm Calm 4.5 mph7.2 kmh 25.22 in854.0 mb 0.00 in0.0 mm 0.00 in/hr0.0 mm/hr 0.00 in0.0 mm
02:46 AM 46.8°F8.2°C 30.9°F-0.6°C 54% 1.0 mph NE1.6 kmh NE 4.9 mph7.9 kmh 25.22 in854.0 mb 0.00 in0.0 mm 0.00 in/hr0.0 mm/hr 0.00 in0.0 mm
02:41 AM 47.5°F8.6°C 32.2°F0.1°C 55% 2.0 mph W3.2 kmh W 4.9 mph7.9 kmh 25.22 in854.0 mb 0.00 in0.0 mm 0.00 in/hr0.0 mm/hr 0.00 in0.0 mm
02:36 AM 46.6°F8.1°C 30.9°F-0.6°C 54% 2.0 mph SE3.2 kmh SE 5.8 mph9.3 kmh 25.22 in854.0 mb 0.00 in0.0 mm 0.00 in/hr0.0 mm/hr 0.00 in0.0 mm
02:31 AM 46.9°F8.3°C 29.8°F-1.2°C 51% 1.0 mph ESE1.6 kmh ESE 4.9 mph7.9 kmh 25.22 in854.0 mb 0.00 in0.0 mm 0.00 in/hr0.0 mm/hr 0.00 in0.0 mm
02:26 AM 47.5°F8.6°C 29.8°F-1.2°C 50% Calm Calm 4.5 mph7.2 kmh 25.22 in854.0 mb 0.00 in0.0 mm 0.00 in/hr0.0 mm/hr 0.00 in0.0 mm
02:21 AM 47.8°F8.8°C 29.1°F-1.6°C 48% Calm Calm -- 25.22 in854.0 mb 0.00 in0.0 mm 0.00 in/hr0.0 mm/hr 0.00 in0.0 mm
02:16 AM 48.2°F9.0°C 29.5°F-1.4°C 48% Calm Calm -- 25.22 in854.0 mb 0.00 in0.0 mm 0.00 in/hr0.0 mm/hr 0.00 in0.0 mm
02:11 AM 48.7°F9.3°C 30.0°F-1.1°C 48% Calm Calm 3.1 mph5.0 kmh 25.22 in854.0 mb 0.00 in0.0 mm 0.00 in/hr0.0 mm/hr 0.00 in0.0 mm
02:06 AM 49.1°F9.5°C 29.3°F-1.5°C 46% Calm Calm -- 25.22 in854.0 mb 0.00 in0.0 mm 0.00 in/hr0.0 mm/hr 0.00 in0.0 mm
02:01 AM 49.6°F9.8°C 28.6°F-1.9°C 44% Calm Calm 4.0 mph6.4 kmh 25.22 in854.0 mb 0.00 in0.0 mm 0.00 in/hr0.0 mm/hr 0.00 in0.0 mm
01:56 AM 50.2°F10.1°C 28.0°F-2.2°C 42% 1.0 mph ESE1.6 kmh ESE 4.0 mph6.4 kmh 25.22 in854.0 mb 0.00 in0.0 mm 0.00 in/hr0.0 mm/hr 0.00 in0.0 mm
01:51 AM 52.0°F11.1°C 27.9°F-2.3°C 39% 2.0 mph ESE3.2 kmh ESE 4.5 mph7.2 kmh 25.22 in854.0 mb 0.00 in0.0 mm 0.00 in/hr0.0 mm/hr 0.00 in0.0 mm
01:46 AM 53.1°F11.7°C 28.8°F-1.8°C 39% 2.0 mph ESE3.2 kmh ESE 4.9 mph7.9 kmh 25.22 in854.0 mb 0.00 in0.0 mm 0.00 in/hr0.0 mm/hr 0.00 in0.0 mm
01:41 AM 53.1°F11.7°C 29.3°F-1.5°C 40% 2.0 mph ESE3.2 kmh ESE 4.5 mph7.2 kmh 25.22 in854.0 mb 0.00 in0.0 mm 0.00 in/hr0.0 mm/hr 0.00 in0.0 mm
01:36 AM 51.1°F10.6°C 31.1°F-0.5°C 46% 1.0 mph ESE1.6 kmh ESE 4.5 mph7.2 kmh 25.22 in854.0 mb 0.00 in0.0 mm 0.00 in/hr0.0 mm/hr 0.00 in0.0 mm
01:31 AM 50.2°F10.1°C 30.7°F-0.7°C 47% 2.0 mph ESE3.2 kmh ESE 4.5 mph7.2 kmh 25.22 in854.0 mb 0.00 in0.0 mm 0.00 in/hr0.0 mm/hr 0.00 in0.0 mm
01:26 AM 50.2°F10.1°C 30.7°F-0.7°C 47% 1.0 mph ENE1.6 kmh ENE 5.8 mph9.3 kmh 25.22 in854.0 mb 0.00 in0.0 mm 0.00 in/hr0.0 mm/hr 0.00 in0.0 mm
01:21 AM 50.9°F10.5°C 31.5°F-0.3°C 47% Calm Calm 3.1 mph5.0 kmh 25.22 in854.0 mb 0.00 in0.0 mm 0.00 in/hr0.0 mm/hr 0.00 in0.0 mm
01:16 AM 50.7°F10.4°C 31.8°F-0.1°C 48% 2.0 mph NE3.2 kmh NE 3.1 mph5.0 kmh 25.22 in854.0 mb 0.00 in0.0 mm 0.00 in/hr0.0 mm/hr 0.00 in0.0 mm
01:11 AM 51.3°F10.7°C 32.7°F0.4°C 49% 4.0 mph NE6.4 kmh NE 5.8 mph9.3 kmh 25.22 in854.0 mb 0.00 in0.0 mm 0.00 in/hr0.0 mm/hr 0.00 in0.0 mm
01:06 AM 49.8°F9.9°C 30.9°F-0.6°C 48% 3.0 mph NE4.8 kmh NE 4.9 mph7.9 kmh 25.22 in854.0 mb 0.00 in0.0 mm 0.00 in/hr0.0 mm/hr 0.00 in0.0 mm
01:01 AM 49.8°F9.9°C 30.4°F-0.9°C 47% 3.0 mph NE4.8 kmh NE 4.0 mph6.4 kmh 25.22 in854.0 mb 0.00 in0.0 mm 0.00 in/hr0.0 mm/hr 0.00 in0.0 mm
12:56 AM 50.4°F10.2°C 29.8°F-1.2°C 45% 3.0 mph E4.8 kmh E 6.7 mph10.8 kmh 25.22 in854.0 mb 0.00 in0.0 mm 0.00 in/hr0.0 mm/hr 0.00 in0.0 mm
12:51 AM 52.5°F11.4°C 28.9°F-1.7°C 40% 3.0 mph ESE4.8 kmh ESE 4.5 mph7.2 kmh 25.22 in854.0 mb 0.00 in0.0 mm 0.00 in/hr0.0 mm/hr 0.00 in0.0 mm
12:46 AM 53.6°F12.0°C 29.8°F-1.2°C 40% 1.0 mph ESE1.6 kmh ESE 4.5 mph7.2 kmh 25.22 in854.0 mb 0.00 in0.0 mm 0.00 in/hr0.0 mm/hr 0.00 in0.0 mm
12:41 AM 53.1°F11.7°C 31.1°F-0.5°C 43% Calm Calm -- 25.22 in854.0 mb 0.00 in0.0 mm 0.00 in/hr0.0 mm/hr 0.00 in0.0 mm
12:36 AM 52.5°F11.4°C 32.4°F0.2°C 46% 1.0 mph ESE1.6 kmh ESE 4.0 mph6.4 kmh 25.22 in854.0 mb 0.00 in0.0 mm 0.00 in/hr0.0 mm/hr 0.00 in0.0 mm
12:31 AM 50.5°F10.3°C 31.1°F-0.5°C 47% 2.0 mph ESE3.2 kmh ESE 4.5 mph7.2 kmh 25.22 in854.0 mb 0.00 in0.0 mm 0.00 in/hr0.0 mm/hr 0.00 in0.0 mm
12:26 AM 50.7°F10.4°C 31.3°F-0.4°C 47% 2.0 mph ESE3.2 kmh ESE 4.5 mph7.2 kmh 25.22 in854.0 mb 0.00 in0.0 mm 0.00 in/hr0.0 mm/hr 0.00 in0.0 mm
12:21 AM 50.7°F10.4°C 31.3°F-0.4°C 47% 2.0 mph ESE3.2 kmh ESE 4.0 mph6.4 kmh 25.22 in854.0 mb 0.00 in0.0 mm 0.00 in/hr0.0 mm/hr 0.00 in0.0 mm
12:16 AM 51.1°F10.6°C 31.1°F-0.5°C 46% 2.0 mph ESE3.2 kmh ESE 3.6 mph5.8 kmh 25.22 in854.0 mb 0.00 in0.0 mm 0.00 in/hr0.0 mm/hr 0.00 in0.0 mm
12:11 AM 51.6°F10.9°C 30.9°F-0.6°C 45% 3.0 mph ESE4.8 kmh ESE 4.5 mph7.2 kmh 25.22 in854.0 mb 0.00 in0.0 mm 0.00 in/hr0.0 mm/hr 0.00 in0.0 mm
12:06 AM 51.4°F10.8°C 30.2°F-1.0°C 44% 2.0 mph SE3.2 kmh SE 4.9 mph7.9 kmh 25.22 in854.0 mb 0.00 in0.0 mm 0.00 in/hr0.0 mm/hr 0.00 in0.0 mm
12:01 AM 52.0°F11.1°C 30.2°F-1.0°C 43% 1.0 mph SE1.6 kmh SE 4.0 mph6.4 kmh 25.22 in854.0 mb 0.00 in0.0 mm 0.00 in/hr0.0 mm/hr 0.00 in0.0 mm
WeatherForYou.com, LLC is not responsible for any damages or problems caused by this service. Current weather conditions are obtained from the closest station including government and personal stations which may have varying degrees of accuracy. Weather forecasts are derived from the NOAA NDFD and obtained through HAMweather's Aeris Weather API. Like all things, this site belongs to Jesus Christ... He just trusts me to maintain it. If you have any questions or comments email webmaster@weatherforyou.com

Copyright © 2014, WeatherForYou.com LLC. All rights reserved.